Disclaimer

Please do not use the information listed here in-flight or in-navigation, as they are not provided to us by the airports but are provided by volunteers, so they might be outdated.

Search


Regions


Airport information page

Radio informations:
GRANDE TWR/APP - 118.3 MHz

Airport informations:
Latitude: 53° 46' 39.60" S
Longitude: 067° 44' 57.80" W
Elevation: 65 feet - 20 meters
Operating hours: Remarks
Operating agency: Military-civil joint use airport
Timezone: UTC-3
Fuel: 100/130 MIL Spec, low lead, aviation gasoline (BLUE)

Runway information:
07/25 - 6561 x 131 feet< - >2000 x 40 meters

Recent METARs:
SAWE 122100Z 27030KT 9999 FEW018 15/02 Q0999
SAWE 122200Z 27029G42KT 9999 FEW018 14/M01 Q1000
SAWE 122200Z 27029G42KT 9999 FEW018 14/M01 Q1000

Airport on the map: